Flight Track Log - Related Links

Times and Time Zones

All times are in EDT time to prevent confusion due to time zone crossing. See the N449ND flight status page for this flight to view local times or setup timezone preferences in your user account.


Time Position Orientation Groundspeed Altitude Reporting Facility
EDT Latitude Longitude Course Direction KTS MPH feet Rate Location/Type
Thu 02:50:36 PM 27.4975 -80.3781 244° Southwest 90 104 400  Level Miami Center
Thu 02:51:39 PM 27.5000 -80.4058 276° West 87 100 1,000 528 Climbing Miami Center
Thu 02:52:41 PM 27.5025 -80.4325 276° West 82 94 1,500 484 Climbing Miami Center
Thu 02:53:43 PM 27.5053 -80.4572 277° West 82 94 2,000 484 Climbing Miami Center
Thu 02:54:45 PM 27.5081 -80.4825 277° West 82 94 2,500 484 Climbing Miami Center
Thu 02:55:47 PM 27.5122 -80.5083 280° West 81 93 3,000 339 Climbing Miami Center
Thu 02:56:00 PM 27.4391 -80.5088 244° Southwest  Level FlightAware Approximate
Thu 02:56:49 PM 27.5150 -80.5389 276° West 90 104 3,200  Level Miami Center
Thu 02:57:51 PM 27.5164 -80.5650 273° West 82 94 3,700 435 Climbing Miami Center
Thu 02:58:53 PM 27.4997 -80.5831 224° Southwest 83 96 4,100 194 Climbing Miami Center
Thu 02:59:55 PM 27.4856 -80.6086 238° Southwest 94 108 4,100  Level Miami Center
Thu 03:00:57 PM 27.4692 -80.6344 234° Southwest 96 110 4,100  Level Miami Center
Thu 03:01:59 PM 27.4519 -80.6586 231° Southwest 96 110 4,100 -48 Level Miami Center
Thu 03:03:01 PM 27.4367 -80.6814 233° Southwest 95 109 4,000 -48 Descending Miami Center
Thu 03:04:03 PM 27.4197 -80.7092 236° Southwest 95 109 4,000 -48 Level Miami Center
Thu 03:05:05 PM 27.4050 -80.7364 239° Southwest 96 110 3,900  Descending Miami Center
Thu 03:06:07 PM 27.3892 -80.7578 230° Southwest 94 108 4,000 48 Climbing Miami Center
Thu 03:07:09 PM 27.3725 -80.7831 233° Southwest 94 108 4,000  Level Miami Center
Thu 03:08:11 PM 27.3572 -80.8089 236° Southwest 94 108 4,000 -48 Level Miami Center
Thu 03:09:13 PM 27.3411 -80.8319 232° Southwest 93 107 3,900  Descending Miami Center
Thu 03:10:15 PM 27.3222 -80.8522 224° Southwest 91 105 4,000 48 Climbing Miami Center
Thu 03:11:17 PM 27.3042 -80.8722 225° Southwest 92 106 4,000  Level Miami Center
Thu 03:12:19 PM 27.2836 -80.8947 224° Southwest 97 112 4,000  Level Miami Center
Thu 03:13:21 PM 27.2636 -80.9147 222° Southwest 96 110 4,000  Level Miami Center
Thu 03:14:23 PM 27.2444 -80.9369 226° Southwest 96 110 4,000  Level Miami Center
Thu 03:15:25 PM 27.2267 -80.9567 225° Southwest 90 104 4,000  Level Miami Center
Thu 03:16:27 PM 27.2075 -80.9783 225° Southwest 90 104 4,000  Level Miami Center
Thu 03:17:29 PM 27.1889 -81.0006 227° Southwest 93 107 4,000  Level Miami Center
Thu 03:18:31 PM 27.1706 -81.0186 221° Southwest 90 104 4,000  Level Miami Center
Thu 03:19:33 PM 27.1522 -81.0392 225° Southwest 90 104 4,000  Level Miami Center
Thu 03:20:35 PM 27.1339 -81.0606 226° Southwest 90 104 4,000  Level Miami Center
Thu 03:21:37 PM 27.1133 -81.0822 223° Southwest 92 106 4,000  Level Miami Center
Thu 03:22:39 PM 27.0953 -81.1022 225° Southwest 90 104 4,000  Level Miami Center
Thu 03:23:41 PM 27.0769 -81.1233 226° Southwest 90 104 4,000  Level Miami Center
Thu 03:24:43 PM 27.0575 -81.1419 220° Southwest 92 106 4,000  Level Miami Center
Thu 03:25:45 PM 27.0378 -81.1642 225° Southwest 95 109 4,000 48 Level Miami Center
Thu 03:26:47 PM 27.0172 -81.1869 225° Southwest 99 114 4,100 48 Climbing Miami Center
Thu 03:27:49 PM 26.9956 -81.2097 223° Southwest 98 113 4,100  Level Miami Center
Thu 03:28:51 PM 26.9767 -81.2308 225° Southwest 98 113 4,100  Level Miami Center
Thu 03:29:53 PM 26.9564 -81.2514 222° Southwest 95 109 4,100  Level Miami Center
Thu 03:30:55 PM 26.9381 -81.2736 227° Southwest 94 108 4,100  Level Miami Center
Thu 03:31:57 PM 26.9169 -81.2958 223° Southwest 99 114 4,100 -48 Level Miami Center
Thu 03:32:59 PM 26.8981 -81.3161 224° Southwest 96 110 4,000  Descending Miami Center
Thu 03:34:01 PM 26.8803 -81.3383 228° Southwest 92 106 4,100 48 Climbing Miami Center
Thu 03:35:03 PM 26.8606 -81.3589 223° Southwest 97 112 4,100  Level Miami Center
Thu 03:36:05 PM 26.8403 -81.3797 223° Southwest 95 109 4,100  Level Miami Center
Thu 03:37:06 PM 26.8200 -81.3972 218° Southwest 90 104 4,100  Level Miami Center
Thu 03:38:08 PM 26.7914 -81.4017 188° South 95 109 4,100 -48 Level Miami Center
Thu 03:39:10 PM 26.7664 -81.4064 190° South 94 108 4,000  Descending Miami Center
Thu 03:40:12 PM 26.7394 -81.4097 186° South 93 107 4,100 48 Climbing Miami Center
Thu 03:41:14 PM 26.7133 -81.4136 188° South 94 108 4,100  Level Miami Center
Thu 03:42:16 PM 26.6828 -81.4183 188° South 103 119 4,100  Level Miami Center
Thu 03:43:18 PM 26.6561 -81.4222 187° South 98 113 4,100  Level Miami Center
Thu 03:44:20 PM 26.6275 -81.4267 188° South 98 113 4,100  Level Miami Center
Thu 03:45:22 PM 26.6025 -81.4303 187° South 92 106 4,100  Level Miami Center
Thu 03:46:24 PM 26.5736 -81.4339 186° South 95 109 4,100  Level Miami Center
Thu 03:47:26 PM 26.5467 -81.4367 185° South 96 110 4,100  Level Miami Center
Thu 03:48:28 PM 26.5181 -81.4400 186° South 96 110 4,100 -44 Level Miami Center
Thu 03:49:41 PM 26.4917 -81.4433 186° South 96 110 4,000 -44 Descending Miami Center
Thu 03:50:44 PM 26.4586 -81.4472 186° South 96 110 4,000  Level Miami Center
Thu 03:51:46 PM 26.4300 -81.4511 187° South 96 110 4,000 48 Level Miami Center
Thu 03:52:48 PM 26.4039 -81.4547 187° South 96 110 4,100 49 Climbing Miami Center
Thu 03:53:49 PM 26.3753 -81.4603 190° South 96 110 4,100  Level Miami Center
Thu 03:54:51 PM 26.3597 -81.4828 232° Southwest 94 108 4,100 -97 Level Miami Center
Thu 03:55:53 PM 26.3433 -81.5072 233° Southwest 94 108 3,900 -387 Descending Miami Center
Thu 03:56:55 PM 26.3289 -81.5339 239° Southwest 100 115 3,300 -532 Descending Miami Center
Thu 03:57:57 PM 26.3103 -81.5575 229° Southwest 94 108 2,800 -435 Descending Miami Center
Thu 03:58:59 PM 26.2942 -81.5819 234° Southwest 96 110 2,400 -290 Descending Miami Center
Thu 04:00:01 PM 26.2806 -81.6050 237° Southwest 92 106 2,200 -195 Descending Miami Center
Thu 04:01:02 PM 26.2628 -81.6289 230° Southwest 92 106 2,000 -195 Descending Miami Center
Thu 04:02:04 PM 26.2486 -81.6514 235° Southwest 92 106 1,800 -290 Descending Miami Center
Thu 04:03:06 PM 26.2322 -81.6756 233° Southwest 92 106 1,400 -290 Descending Miami Center
Thu 04:04:08 PM 26.2178 -81.6986 235° Southwest 92 106 1,200 -242 Descending Miami Center
Thu 04:05:10 PM 26.2031 -81.7236 237° Southwest 92 106 900 -194 Descending Miami Center
Thu 04:06:12 PM 26.1883 -81.7386 222° Southwest 76 87 800 -194 Descending Miami Center
Thu 04:07:14 PM 26.1744 -81.7525 222° Southwest 67 77 500 -290 Descending Miami Center
Thu 04:08:16 PM 26.1622 -81.7653 223° Southwest 67 77 200 -290 Descending Miami Center
Thu 04:10:00 PM 26.1500 -81.7667 228° Southwest  Level FlightAware Approximate
Thu 04:17:00 PM 26.1524 -81.7756 287° West  Level Estimated
Thu 04:18:00 PM 26.1524 -81.7756 North  Level Estimated
Thu 04:19:00 PM 26.1524 -81.7756 North  Level Estimated
Thu 04:20:00 PM 26.1524 -81.7756 North  Level Estimated
Thu 04:21:00 PM 26.1524 -81.7756 North  Level Estimated
Thu 04:22:00 PM 26.1524 -81.7756 North  Level Estimated
Thu 04:23:00 PM 26.1524 -81.7756 North  Level Estimated
Thu 04:24:00 PM 26.1524 -81.7756 North  Level Estimated

Login

Don't have an account? Register now (free) for customized features, flight alerts, and more!